createdAt,value
2023-03-07T00:00:31.895Z,3.79
2023-03-07T00:03:48.146Z,3.79
2023-03-07T00:06:50.032Z,3.78
2023-03-07T00:09:52.569Z,3.76
2023-03-07T00:12:54.455Z,3.75
2023-03-07T00:16:03.453Z,3.73
2023-03-07T00:19:07.461Z,3.72
2023-03-07T00:22:11.807Z,3.72
2023-03-07T00:25:14.965Z,3.70
2023-03-07T00:28:16.683Z,3.70
2023-03-07T00:31:19.828Z,3.70
2023-03-07T00:34:21.847Z,3.70
2023-03-07T00:37:23.975Z,3.70
2023-03-07T00:40:25.869Z,3.69
2023-03-07T00:43:28.227Z,3.69
2023-03-07T00:46:29.922Z,3.70
2023-03-07T00:49:31.945Z,3.72
2023-03-07T00:52:33.844Z,3.73
2023-03-07T00:55:35.838Z,3.73
2023-03-07T00:58:37.800Z,3.75
2023-03-07T01:01:39.713Z,3.76
2023-03-07T01:04:41.607Z,3.77
2023-03-07T01:07:44.616Z,3.78
2023-03-07T01:10:50.256Z,3.78
2023-03-07T01:13:55.649Z,3.79
2023-03-07T01:16:58.108Z,3.79
2023-03-07T01:20:00.351Z,3.80
2023-03-07T01:23:03.117Z,3.81
2023-03-07T01:26:05.066Z,3.82
2023-03-07T01:29:07.807Z,3.82
2023-03-07T01:32:10.928Z,3.82
2023-03-07T01:35:12.903Z,3.82
2023-03-07T01:38:14.835Z,3.82
2023-03-07T01:41:16.804Z,3.82
2023-03-07T01:44:27.256Z,3.82
2023-03-07T01:47:29.545Z,3.83
2023-03-07T01:50:31.468Z,3.84
2023-03-07T01:53:33.766Z,3.84
2023-03-07T01:56:37.872Z,3.84
2023-03-07T01:59:46.627Z,3.84
2023-03-07T02:03:06.648Z,3.84
2023-03-07T02:06:12.075Z,3.85
2023-03-07T02:09:18.333Z,3.86
2023-03-07T02:12:22.992Z,3.86
2023-03-07T02:15:25.259Z,3.87
2023-03-07T02:18:33.111Z,3.87
2023-03-07T02:22:11.827Z,3.87
2023-03-07T02:25:34.226Z,3.87
2023-03-07T02:28:36.569Z,3.87
2023-03-07T02:31:38.575Z,3.87
2023-03-07T02:34:40.465Z,3.87
2023-03-07T02:37:58.333Z,3.86
2023-03-07T02:41:00.584Z,3.86
2023-03-07T02:44:02.642Z,3.86
2023-03-07T02:47:08.249Z,3.86
2023-03-07T02:50:11.136Z,3.87
2023-03-07T02:53:15.294Z,3.86
2023-03-07T02:56:17.344Z,3.85
2023-03-07T02:59:19.386Z,3.84
2023-03-07T03:02:21.293Z,3.84
2023-03-07T03:05:23.475Z,3.84
2023-03-07T03:08:26.950Z,3.84
2023-03-07T03:11:28.767Z,3.83
2023-03-07T03:14:31.814Z,3.82
2023-03-07T03:17:33.718Z,3.82
2023-03-07T03:20:38.859Z,3.81
2023-03-07T03:23:40.797Z,3.81
2023-03-07T03:26:43.705Z,3.80
2023-03-07T03:29:45.760Z,3.79
2023-03-07T03:32:47.820Z,3.79
2023-03-07T03:35:50.522Z,3.79
2023-03-07T03:38:57.481Z,3.77
2023-03-07T03:41:59.557Z,3.77
2023-03-07T03:45:01.584Z,3.77
2023-03-07T03:48:03.517Z,3.76
2023-03-07T03:51:16.404Z,3.75
2023-03-07T03:54:18.303Z,3.74
2023-03-07T03:57:20.164Z,3.73
2023-03-07T04:00:23.096Z,3.73
2023-03-07T04:03:24.964Z,3.71
2023-03-07T04:06:32.479Z,3.71
2023-03-07T04:09:34.393Z,3.70
2023-03-07T04:12:36.437Z,3.69
2023-03-07T04:15:39.051Z,3.68
2023-03-07T04:18:40.980Z,3.67
2023-03-07T04:21:43.889Z,3.66
2023-03-07T04:24:46.826Z,3.65
2023-03-07T04:27:48.749Z,3.64
2023-03-07T04:30:55.558Z,3.63
2023-03-07T04:33:58.343Z,3.62
2023-03-07T04:37:00.469Z,3.61
2023-03-07T04:40:03.256Z,3.61
2023-03-07T04:43:05.338Z,3.60
2023-03-07T04:46:08.221Z,3.59
2023-03-07T04:49:09.936Z,3.59
2023-03-07T04:52:12.020Z,3.59
2023-03-07T04:55:14.453Z,3.57
2023-03-07T04:58:16.680Z,3.57
2023-03-07T05:01:18.817Z,3.56
2023-03-07T05:04:21.447Z,3.56
2023-03-07T05:07:23.797Z,3.56
2023-03-07T05:10:26.191Z,3.55
2023-03-07T05:13:28.275Z,3.54
2023-03-07T05:16:30.493Z,3.54
2023-03-07T05:19:32.376Z,3.52
2023-03-07T05:22:34.354Z,3.50
2023-03-07T05:25:36.444Z,3.49
2023-03-07T05:28:38.405Z,3.47
2023-03-07T05:31:40.203Z,3.45
2023-03-07T05:34:43.927Z,3.44
2023-03-07T05:37:46.247Z,3.42
2023-03-07T05:40:48.219Z,3.42
2023-03-07T05:43:50.495Z,3.41
2023-03-07T05:46:52.484Z,3.40
2023-03-07T05:49:54.462Z,3.40
2023-03-07T05:52:56.447Z,3.40
2023-03-07T05:56:01.097Z,3.40
2023-03-07T05:59:06.988Z,3.39
2023-03-07T06:02:09.155Z,3.39
2023-03-07T06:05:11.155Z,3.39
2023-03-07T06:08:12.949Z,3.39
2023-03-07T06:11:14.907Z,3.39
2023-03-07T06:14:16.860Z,3.41
2023-03-07T06:17:18.802Z,3.43
2023-03-07T06:20:20.733Z,3.45
2023-03-07T06:23:22.981Z,3.48
2023-03-07T06:26:24.969Z,3.51
2023-03-07T06:29:28.067Z,3.53
2023-03-07T06:32:30.846Z,3.56
2023-03-07T06:35:34.161Z,3.60
2023-03-07T06:38:36.274Z,3.63
2023-03-07T06:41:38.211Z,3.67
2023-03-07T06:44:40.939Z,3.70
2023-03-07T06:47:43.761Z,3.75
2023-03-07T06:50:46.698Z,3.79
2023-03-07T06:53:48.561Z,3.84
2023-03-07T06:56:51.008Z,3.89
2023-03-07T06:59:55.061Z,3.92
2023-03-07T07:02:57.433Z,3.95
2023-03-07T07:05:59.487Z,3.99
2023-03-07T07:09:01.577Z,4.03
2023-03-07T07:12:07.554Z,4.08
2023-03-07T07:15:10.041Z,4.11
2023-03-07T07:18:13.308Z,4.13
2023-03-07T07:21:15.420Z,4.18
2023-03-07T07:24:17.718Z,4.22
2023-03-07T07:27:19.569Z,4.26
2023-03-07T07:30:22.219Z,4.32
2023-03-07T07:33:24.213Z,4.37
2023-03-07T07:36:26.324Z,4.42
2023-03-07T07:39:28.354Z,4.49
2023-03-07T07:42:32.283Z,4.55
2023-03-07T07:45:50.438Z,4.59
2023-03-07T07:48:55.147Z,4.62
2023-03-07T07:51:57.551Z,4.64
2023-03-07T07:54:59.466Z,4.67
2023-03-07T07:58:01.830Z,4.70
2023-03-07T08:01:19.687Z,4.72
2023-03-07T08:04:21.802Z,4.74
2023-03-07T08:07:23.694Z,4.77
2023-03-07T08:10:25.644Z,4.80
2023-03-07T08:13:29.922Z,4.82
2023-03-07T08:16:31.891Z,4.86
2023-03-07T08:19:33.892Z,4.89
2023-03-07T08:22:39.574Z,4.92
2023-03-07T08:25:41.592Z,4.97
2023-03-07T08:28:44.128Z,5.02
2023-03-07T08:31:48.165Z,5.11
2023-03-07T08:34:50.079Z,5.19
2023-03-07T08:37:57.595Z,5.29
2023-03-07T08:41:01.364Z,5.37
2023-03-07T08:44:03.460Z,5.45
2023-03-07T08:47:05.586Z,5.53
2023-03-07T08:50:08.605Z,5.59
2023-03-07T08:53:10.512Z,5.66
2023-03-07T08:56:16.033Z,5.73
2023-03-07T08:59:17.912Z,5.81
2023-03-07T09:02:19.973Z,5.92
2023-03-07T09:05:22.167Z,6.04
2023-03-07T09:08:24.462Z,6.17
2023-03-07T09:11:26.568Z,6.28
2023-03-07T09:14:28.804Z,6.39
2023-03-07T09:17:30.695Z,6.49
2023-03-07T09:20:32.661Z,6.59
2023-03-07T09:23:34.657Z,6.69
2023-03-07T09:26:36.918Z,6.81
2023-03-07T09:29:38.768Z,6.95
2023-03-07T09:32:40.906Z,7.07
2023-03-07T09:35:43.140Z,7.17
2023-03-07T09:38:47.388Z,7.30
2023-03-07T09:42:00.384Z,7.40
2023-03-07T09:45:29.036Z,7.44
2023-03-07T09:48:47.391Z,7.47
2023-03-07T09:51:53.167Z,7.53
2023-03-07T09:55:04.759Z,7.55
2023-03-07T09:58:16.071Z,7.52
2023-03-07T10:01:23.638Z,7.48
2023-03-07T10:04:51.374Z,7.47
2023-03-07T10:07:54.660Z,7.51
2023-03-07T10:11:11.181Z,7.57
2023-03-07T10:14:37.204Z,7.61
2023-03-07T10:18:09.725Z,7.64
2023-03-07T10:21:30.985Z,7.73
2023-03-07T10:24:47.404Z,7.80
2023-03-07T10:27:54.972Z,7.84
2023-03-07T10:31:02.151Z,7.90
2023-03-07T10:34:37.701Z,7.93
2023-03-07T10:37:54.706Z,7.88
2023-03-07T10:41:06.642Z,7.88
2023-03-07T10:44:18.549Z,7.95
2023-03-07T10:47:23.800Z,7.94
2023-03-07T10:50:28.425Z,7.94
2023-03-07T10:53:34.853Z,8.04
2023-03-07T10:56:37.286Z,8.10
2023-03-07T10:59:43.053Z,8.14
2023-03-07T11:02:46.258Z,8.19
2023-03-07T11:05:49.237Z,8.24
2023-03-07T11:08:51.053Z,8.29
2023-03-07T11:12:09.686Z,8.26
2023-03-07T11:15:20.926Z,8.19
2023-03-07T11:18:29.365Z,8.15
2023-03-07T11:21:35.321Z,8.15
2023-03-07T11:24:38.520Z,8.13
2023-03-07T11:27:53.791Z,8.07
2023-03-07T11:31:29.142Z,8.02
2023-03-07T11:34:37.236Z,7.99
2023-03-07T11:37:42.976Z,7.96
2023-03-07T11:40:55.868Z,7.95
2023-03-07T11:44:00.460Z,7.97
2023-03-07T11:47:08.512Z,7.96
2023-03-07T11:50:16.598Z,7.96
2023-03-07T11:53:37.056Z,7.98
2023-03-07T11:56:46.075Z,7.98
2023-03-07T11:59:58.947Z,8.00
2023-03-07T12:03:03.837Z,8.01
2023-03-07T12:06:17.951Z,8.03
2023-03-07T12:09:33.278Z,8.04
2023-03-07T12:12:56.017Z,8.07
2023-03-07T12:16:16.686Z,8.10
2023-03-07T12:19:42.979Z,8.10
2023-03-07T12:23:14.997Z,8.11
2023-03-07T12:26:19.826Z,8.13
2023-03-07T12:29:34.004Z,8.13
2023-03-07T12:32:37.693Z,8.10
2023-03-07T12:35:49.694Z,8.07
2023-03-07T12:39:02.688Z,8.05
2023-03-07T12:42:17.747Z,8.04
2023-03-07T12:45:24.419Z,8.03
2023-03-07T12:48:42.825Z,8.03
2023-03-07T12:51:48.778Z,8.03
2023-03-07T12:55:41.764Z,8.05
2023-03-07T12:59:01.997Z,8.06
2023-03-07T13:02:31.829Z,8.07
2023-03-07T13:05:36.586Z,8.08
2023-03-07T13:08:40.196Z,8.11
2023-03-07T13:12:21.898Z,8.12
2023-03-07T13:15:25.260Z,8.12
2023-03-07T13:18:31.718Z,8.12
2023-03-07T13:21:33.939Z,8.13
2023-03-07T13:24:40.744Z,8.15
2023-03-07T13:27:51.491Z,8.15
2023-03-07T13:31:14.884Z,8.15
2023-03-07T13:34:45.910Z,8.13
2023-03-07T13:37:52.947Z,8.10
2023-03-07T13:41:00.015Z,8.09
2023-03-07T13:44:02.797Z,8.05
2023-03-07T13:47:42.930Z,8.02
2023-03-07T13:50:44.861Z,7.97
2023-03-07T13:53:54.284Z,7.95
2023-03-07T13:56:56.673Z,7.90
2023-03-07T14:00:00.246Z,7.87
2023-03-07T14:03:02.428Z,7.83
2023-03-07T14:06:28.144Z,7.79
2023-03-07T14:09:43.053Z,7.79
2023-03-07T14:13:14.935Z,7.80
2023-03-07T14:16:25.691Z,7.81
2023-03-07T14:19:54.741Z,7.80
2023-03-07T14:23:27.272Z,7.80
2023-03-07T14:26:32.808Z,7.80
2023-03-07T14:29:34.720Z,7.79
2023-03-07T14:32:40.227Z,7.80
2023-03-07T14:35:44.406Z,7.80
2023-03-07T14:38:50.114Z,7.79
2023-03-07T14:42:00.994Z,7.76
2023-03-07T14:45:41.063Z,7.72
2023-03-07T14:49:06.444Z,7.67
2023-03-07T14:52:21.508Z,7.64
2023-03-07T14:55:38.247Z,7.59
2023-03-07T14:58:53.297Z,7.56
2023-03-07T15:01:56.953Z,7.53
2023-03-07T15:04:58.945Z,7.51
2023-03-07T15:08:01.140Z,7.49
2023-03-07T15:11:43.807Z,7.47
2023-03-07T15:14:51.796Z,7.46
2023-03-07T15:17:57.304Z,7.46
2023-03-07T15:21:01.087Z,7.44
2023-03-07T15:24:03.273Z,7.43
2023-03-07T15:27:09.799Z,7.42
2023-03-07T15:30:24.487Z,7.41
2023-03-07T15:33:30.100Z,7.39
2023-03-07T15:36:32.723Z,7.38
2023-03-07T15:39:35.051Z,7.36
2023-03-07T15:42:55.057Z,7.34
2023-03-07T15:46:14.894Z,7.31
2023-03-07T15:49:38.556Z,7.28
2023-03-07T15:52:41.104Z,7.26
2023-03-07T15:55:53.076Z,7.25
2023-03-07T15:58:59.674Z,7.22
2023-03-07T16:02:33.332Z,7.20
2023-03-07T16:05:37.119Z,7.18
2023-03-07T16:08:38.975Z,7.15
2023-03-07T16:11:41.616Z,7.13
2023-03-07T16:14:46.126Z,7.10
2023-03-07T16:17:52.556Z,7.08
2023-03-07T16:20:55.042Z,7.08
2023-03-07T16:23:56.908Z,7.06
2023-03-07T16:26:59.004Z,7.04
2023-03-07T16:30:01.002Z,7.04
2023-03-07T16:33:02.915Z,7.03
2023-03-07T16:36:05.275Z,7.02
2023-03-07T16:39:07.141Z,7.01
2023-03-07T16:42:19.440Z,6.99
2023-03-07T16:45:30.301Z,6.97
2023-03-07T16:48:32.811Z,6.96
2023-03-07T16:51:34.879Z,6.95
2023-03-07T16:54:36.702Z,6.93
2023-03-07T16:57:39.611Z,6.92
2023-03-07T17:00:41.977Z,6.91
2023-03-07T17:03:43.937Z,6.89
2023-03-07T17:06:48.745Z,6.88
2023-03-07T17:09:54.429Z,6.87
2023-03-07T17:12:57.464Z,6.87
2023-03-07T17:15:59.393Z,6.85
2023-03-07T17:19:01.272Z,6.84
2023-03-07T17:22:03.151Z,6.85
2023-03-07T17:25:05.548Z,6.86
2023-03-07T17:28:12.812Z,6.85
2023-03-07T17:31:14.668Z,6.86
2023-03-07T17:34:29.596Z,6.85
2023-03-07T17:37:31.521Z,6.85
2023-03-07T17:40:33.493Z,6.85
2023-03-07T17:43:35.547Z,6.85
2023-03-07T17:46:37.445Z,6.86
2023-03-07T17:49:39.413Z,6.86
2023-03-07T17:52:41.292Z,6.86
2023-03-07T17:55:43.765Z,6.86
2023-03-07T17:58:45.698Z,6.86
2023-03-07T18:01:47.574Z,6.86
2023-03-07T18:04:50.934Z,6.86
2023-03-07T18:07:53.192Z,6.85
2023-03-07T18:11:01.161Z,6.85
2023-03-07T18:14:03.117Z,6.85
2023-03-07T18:17:04.979Z,6.85
2023-03-07T18:20:10.452Z,6.85
2023-03-07T18:23:12.453Z,6.85
2023-03-07T18:26:15.344Z,6.84
2023-03-07T18:29:17.497Z,6.84
2023-03-07T18:32:19.412Z,6.84
2023-03-07T18:35:22.776Z,6.83
2023-03-07T18:38:25.360Z,6.83
2023-03-07T18:41:27.672Z,6.83
2023-03-07T18:44:29.370Z,6.81
2023-03-07T18:47:31.849Z,6.81
2023-03-07T18:50:33.826Z,6.81
2023-03-07T18:53:36.890Z,6.81
2023-03-07T18:56:38.828Z,6.80
2023-03-07T18:59:40.795Z,6.79
2023-03-07T19:02:43.101Z,6.79
2023-03-07T19:05:48.110Z,6.78
2023-03-07T19:08:50.590Z,6.77
2023-03-07T19:11:52.785Z,6.76
2023-03-07T19:14:55.171Z,6.75
2023-03-07T19:17:57.075Z,6.75
2023-03-07T19:20:59.019Z,6.73
2023-03-07T19:24:03.837Z,6.72
2023-03-07T19:27:05.941Z,6.70
2023-03-07T19:30:10.613Z,6.69
2023-03-07T19:33:12.432Z,6.68
2023-03-07T19:36:27.307Z,6.66
2023-03-07T19:39:29.388Z,6.65
2023-03-07T19:42:31.221Z,6.64
2023-03-07T19:45:33.548Z,6.64
2023-03-07T19:48:35.339Z,6.63
2023-03-07T19:51:37.185Z,6.64
2023-03-07T19:54:39.470Z,6.62
2023-03-07T19:57:41.360Z,6.61
2023-03-07T20:00:45.889Z,6.60
2023-03-07T20:03:48.550Z,6.59
2023-03-07T20:06:50.515Z,6.58
2023-03-07T20:09:52.373Z,6.57
2023-03-07T20:12:54.237Z,6.56
2023-03-07T20:15:56.076Z,6.56
2023-03-07T20:19:00.673Z,6.54
2023-03-07T20:22:04.247Z,6.52
2023-03-07T20:25:06.627Z,6.52
2023-03-07T20:28:09.280Z,6.51
2023-03-07T20:31:12.468Z,6.50
2023-03-07T20:34:14.333Z,6.49
2023-03-07T20:37:16.180Z,6.49
2023-03-07T20:40:18.373Z,6.47
2023-03-07T20:43:20.233Z,6.47
2023-03-07T20:46:22.402Z,6.46
2023-03-07T20:49:24.214Z,6.45
2023-03-07T20:52:26.120Z,6.43
2023-03-07T20:55:29.008Z,6.42
2023-03-07T20:58:31.880Z,6.42
2023-03-07T21:01:34.478Z,6.41
2023-03-07T21:04:36.682Z,6.41
2023-03-07T21:07:38.554Z,6.41
2023-03-07T21:10:40.397Z,6.41
2023-03-07T21:13:44.693Z,6.39
2023-03-07T21:16:47.182Z,6.38
2023-03-07T21:19:49.013Z,6.38
2023-03-07T21:22:50.886Z,6.37
2023-03-07T21:25:55.083Z,6.35
2023-03-07T21:28:57.993Z,6.33
2023-03-07T21:32:01.330Z,6.32
2023-03-07T21:35:03.605Z,6.31
2023-03-07T21:38:05.841Z,6.30
2023-03-07T21:41:08.037Z,6.27
2023-03-07T21:44:09.957Z,6.26
2023-03-07T21:47:12.459Z,6.26
2023-03-07T21:50:14.373Z,6.25
2023-03-07T21:53:17.376Z,6.25
2023-03-07T21:56:19.244Z,6.26
2023-03-07T21:59:21.532Z,6.26
2023-03-07T22:02:23.409Z,6.26
2023-03-07T22:05:25.351Z,6.27
2023-03-07T22:08:27.141Z,6.26
2023-03-07T22:11:28.984Z,6.25
2023-03-07T22:14:30.932Z,6.25
2023-03-07T22:17:33.215Z,6.26
2023-03-07T22:20:37.468Z,6.26
2023-03-07T22:23:39.520Z,6.26
2023-03-07T22:26:41.384Z,6.25
2023-03-07T22:29:43.329Z,6.25
2023-03-07T22:32:45.182Z,6.25
2023-03-07T22:35:55.897Z,6.25
2023-03-07T22:38:57.763Z,6.25
2023-03-07T22:41:59.851Z,6.24
2023-03-07T22:45:01.690Z,6.23
2023-03-07T22:48:03.653Z,6.23
2023-03-07T22:51:12.388Z,6.22
2023-03-07T22:54:14.281Z,6.21
2023-03-07T22:57:16.136Z,6.20
2023-03-07T23:00:18.449Z,6.21
2023-03-07T23:03:20.222Z,6.21
2023-03-07T23:06:23.972Z,6.21
2023-03-07T23:09:25.836Z,6.20
2023-03-07T23:12:27.722Z,6.20
2023-03-07T23:15:29.694Z,6.19
2023-03-07T23:18:31.616Z,6.19
2023-03-07T23:21:34.030Z,6.19
2023-03-07T23:24:35.719Z,6.19
2023-03-07T23:27:37.530Z,6.18
2023-03-07T23:30:40.227Z,6.18
2023-03-07T23:33:42.123Z,6.18
2023-03-07T23:36:44.923Z,6.18
2023-03-07T23:39:46.749Z,6.18
2023-03-07T23:42:48.575Z,6.20
2023-03-07T23:45:50.395Z,6.19
2023-03-07T23:48:53.388Z,6.19
2023-03-07T23:51:55.506Z,6.18
2023-03-07T23:54:57.279Z,6.18
2023-03-07T23:57:59.131Z,6.17
